Time;durP1;ratioP1;P1;durP2;ratioP2;P2;SDS_P1;SDS_P2;PMS_P1;PMS_P2;Temp;Humidity;BMP_temperature;BMP_pressure;BME280_temperature;BME280_humidity;BME280_pressure;Samples;Min_cycle;Max_cycle;Signal;HPM_P1;HPM_P2
2021/03/29 00:01:13;;;;;;;3.97;2.90;;;7.10;60.30;;;;;;5094768;28;20225;-89
2021/03/29 00:03:39;;;;;;;6.50;3.47;;;7.00;62.80;;;;;;5097826;28;20196;-89
2021/03/29 00:06:07;;;;;;;4.93;3.20;;;6.80;61.10;;;;;;5099042;28;20339;-88
2021/03/29 00:08:34;;;;;;;5.47;3.00;;;6.70;63.20;;;;;;5103231;28;20203;-89
2021/03/29 00:11:03;;;;;;;5.37;3.37;;;6.70;61.90;;;;;;5088931;28;20221;-89
2021/03/29 00:13:31;;;;;;;4.73;3.10;;;6.80;67.40;;;;;;5093095;28;20203;-89
2021/03/29 00:15:59;;;;;;;6.40;3.17;;;7.00;71.80;;;;;;5094508;28;20224;-90
2021/03/29 00:18:26;;;;;;;5.03;3.30;;;7.10;67.50;;;;;;5095401;28;20697;-89
2021/03/29 00:20:56;;;;;;;5.33;3.23;;;7.10;62.90;;;;;;5093902;28;20466;-90
2021/03/29 00:23:23;;;;;;;5.53;3.30;;;7.00;62.50;;;;;;5096109;28;20196;-89
2021/03/29 00:25:50;;;;;;;5.80;3.07;;;7.10;66.10;;;;;;5089934;28;20224;-89
2021/03/29 00:28:17;;;;;;;5.03;3.30;;;7.20;66.30;;;;;;5095835;28;20205;-89
2021/03/29 00:30:46;;;;;;;4.87;3.40;;;7.30;66.70;;;;;;5096633;28;20234;-89
2021/03/29 00:33:13;;;;;;;3.97;2.83;;;7.30;67.30;;;;;;5090831;28;20547;-89
2021/03/29 00:35:43;;;;;;;4.87;3.13;;;7.20;63.50;;;;;;5089967;28;20681;-90
2021/03/29 00:38:11;;;;;;;4.30;3.03;;;7.20;61.30;;;;;;5093021;28;20620;-89
2021/03/29 00:40:41;;;;;;;4.37;3.13;;;7.00;59.80;;;;;;5093626;28;20246;-89
2021/03/29 00:43:13;;;;;;;4.57;2.93;;;6.70;61.50;;;;;;5095228;28;20211;-89
2021/03/29 00:45:41;;;;;;;5.13;3.40;;;6.70;62.70;;;;;;5084558;28;20586;-88
2021/03/29 00:48:09;;;;;;;3.77;3.17;;;6.80;66.70;;;;;;5094839;28;20205;-88
2021/03/29 00:50:43;;;;;;;4.93;3.03;;;6.80;62.10;;;;;;5094334;28;20224;-89
2021/03/29 00:53:11;;;;;;;7.93;3.00;;;6.70;62.90;;;;;;5094991;28;20211;-88
2021/03/29 00:55:40;;;;;;;5.67;3.20;;;6.80;67.30;;;;;;5095220;28;20280;-90
2021/03/29 00:58:07;;;;;;;3.43;3.00;;;6.80;66.20;;;;;;5096919;28;20261;-89
2021/03/29 01:00:37;;;;;;;7.23;3.13;;;6.90;65.90;;;;;;5101233;28;20280;-89
2021/03/29 01:03:07;;;;;;;5.53;3.30;;;6.90;64.70;;;;;;5086408;28;20197;-88
2021/03/29 01:05:33;;;;;;;5.27;3.00;;;6.90;66.70;;;;;;5087615;28;20220;-89
2021/03/29 01:08:00;;;;;;;6.00;3.47;;;6.90;67.20;;;;;;5087753;28;20654;-89
2021/03/29 01:10:27;;;;;;;5.20;3.23;;;6.90;67.80;;;;;;5092825;28;20704;-88
2021/03/29 01:13:03;;;;;;;4.17;3.23;;;6.90;68.70;;;;;;5090446;28;20207;-90
2021/03/29 01:15:30;;;;;;;6.10;3.20;;;6.90;68.80;;;;;;5087362;28;20219;-89
2021/03/29 01:17:58;;;;;;;5.00;3.30;;;6.80;66.40;;;;;;5092234;28;20457;-88
2021/03/29 01:20:35;;;;;;;4.90;3.00;;;6.80;67.50;;;;;;5091918;28;20232;-88
2021/03/29 01:23:03;;;;;;;5.97;3.17;;;6.80;66.90;;;;;;5088005;28;20201;-88
2021/03/29 01:25:39;;;;;;;4.50;2.90;;;6.60;65.60;;;;;;5091703;28;20557;-88
2021/03/29 01:28:09;;;;;;;6.67;3.30;;;6.60;68.00;;;;;;5086410;28;20302;-89
2021/03/29 01:30:38;;;;;;;7.23;3.13;;;6.60;68.60;;;;;;5091828;28;20240;-87
2021/03/29 01:33:07;;;;;;;5.03;3.17;;;6.50;70.90;;;;;;5092765;28;20663;-88
2021/03/29 01:35:36;;;;;;;4.57;3.23;;;6.50;71.30;;;;;;5091716;28;20223;-87
2021/03/29 01:38:04;;;;;;;5.23;3.43;;;6.50;71.30;;;;;;5091745;28;20189;-87
2021/03/29 01:40:35;;;;;;;4.53;3.07;;;6.50;71.30;;;;;;5090117;28;20273;-88
2021/03/29 01:43:02;;;;;;;5.03;2.90;;;6.50;71.30;;;;;;5081589;28;20208;-88
2021/03/29 01:45:29;;;;;;;5.03;3.03;;;6.40;71.20;;;;;;5089454;28;20257;-87
2021/03/29 01:47:56;;;;;;;3.53;2.80;;;6.30;68.40;;;;;;5090939;28;20224;-87
2021/03/29 01:50:25;;;;;;;3.83;3.10;;;6.20;66.80;;;;;;5089816;28;20224;-88
2021/03/29 01:52:52;;;;;;;3.33;2.77;;;6.20;71.00;;;;;;5085007;28;20197;-87
2021/03/29 01:55:19;;;;;;;4.23;2.70;;;6.10;68.80;;;;;;5089402;28;20239;-87
2021/03/29 01:57:45;;;;;;;5.50;3.10;;;6.00;67.80;;;;;;5090519;28;20203;-88
2021/03/29 02:00:15;;;;;;;4.23;3.00;;;6.00;69.80;;;;;;5088578;28;20240;-87
2021/03/29 02:02:43;;;;;;;7.67;2.97;;;5.90;70.40;;;;;;5089385;28;20647;-87
2021/03/29 02:05:12;;;;;;;5.07;2.90;;;6.00;68.60;;;;;;5089423;28;20228;-88
2021/03/29 02:07:39;;;;;;;6.30;2.90;;;5.90;67.80;;;;;;5089763;28;20221;-87
2021/03/29 02:10:10;;;;;;;3.87;2.90;;;5.90;70.00;;;;;;5089737;28;20694;-88
2021/03/29 02:12:37;;;;;;;5.60;2.90;;;5.90;69.90;;;;;;5092963;28;20208;-87
2021/03/29 02:15:06;;;;;;;4.50;2.97;;;5.90;70.70;;;;;;5092962;28;20220;-87
2021/03/29 02:17:33;;;;;;;4.43;3.03;;;6.00;70.70;;;;;;5085986;28;20196;-87
2021/03/29 02:20:01;;;;;;;3.60;2.53;;;6.00;70.70;;;;;;5076423;28;20228;-87
2021/03/29 02:22:30;;;;;;;4.43;2.60;;;6.00;70.70;;;;;;5093833;28;20201;-88
2021/03/29 02:24:57;;;;;;;3.87;2.80;;;5.90;68.50;;;;;;5093434;28;20224;-86
2021/03/29 02:27:23;;;;;;;5.47;3.10;;;5.70;70.40;;;;;;5087064;28;20221;-87
2021/03/29 02:29:52;;;;;;;5.37;2.90;;;5.60;70.40;;;;;;5091068;28;20216;-86
2021/03/29 02:32:18;;;;;;;4.70;2.90;;;5.40;70.20;;;;;;5093663;28;20667;-87
2021/03/29 02:34:44;;;;;;;4.70;3.10;;;5.50;73.40;;;;;;5093144;28;20197;-87
2021/03/29 02:37:12;;;;;;;4.60;2.87;;;5.50;70.30;;;;;;5091913;28;20756;-87
2021/03/29 02:39:38;;;;;;;4.17;2.70;;;5.50;72.40;;;;;;5097320;28;20231;-86
2021/03/29 02:42:06;;;;;;;3.83;3.00;;;5.50;70.80;;;;;;5102104;28;20209;-88
2021/03/29 02:44:33;;;;;;;6.30;2.97;;;5.60;73.90;;;;;;5103202;28;20253;-87
2021/03/29 02:47:00;;;;;;;7.27;3.33;;;5.70;70.40;;;;;;5102521;28;20232;-87
2021/03/29 02:49:26;;;;;;;3.97;2.93;;;5.70;70.40;;;;;;5089588;28;20207;-86
2021/03/29 02:51:53;;;;;;;5.23;3.07;;;5.80;72.10;;;;;;5098268;28;20569;-88
2021/03/29 02:54:22;;;;;;;4.43;2.80;;;5.80;70.60;;;;;;5104074;28;20208;-86
2021/03/29 02:56:52;;;;;;;4.83;2.93;;;5.70;70.40;;;;;;5095624;28;20220;-86
2021/03/29 02:59:20;;;;;;;5.70;2.80;;;5.60;70.40;;;;;;5104357;28;20861;-87
2021/03/29 03:01:48;;;;;;;5.63;2.93;;;5.60;70.40;;;;;;5102740;28;20246;-87
2021/03/29 03:04:16;;;;;;;3.63;2.73;;;5.50;72.00;;;;;;5104757;28;20230;-88
2021/03/29 03:06:45;;;;;;;4.43;2.70;;;5.50;70.30;;;;;;5104086;28;20229;-87
2021/03/29 03:09:13;;;;;;;4.00;2.70;;;5.40;71.60;;;;;;5104121;28;20192;-87
2021/03/29 03:11:44;;;;;;;3.67;2.67;;;5.40;70.10;;;;;;5104162;28;20220;-87
2021/03/29 03:14:11;;;;;;;3.10;2.67;;;5.30;70.20;;;;;;5104134;28;20196;-86
2021/03/29 03:16:38;;;;;;;5.73;2.60;;;5.30;70.70;;;;;;5099772;28;20224;-87
2021/03/29 03:19:06;;;;;;;5.73;2.90;;;5.30;71.50;;;;;;5105576;28;20200;-88
2021/03/29 03:21:34;;;;;;;4.40;2.43;;;5.40;73.90;;;;;;5095349;28;20221;-86
2021/03/29 03:24:01;;;;;;;3.53;2.30;;;5.40;70.20;;;;;;5093751;28;20214;-86
2021/03/29 03:26:29;;;;;;;8.20;2.90;;;5.50;72.30;;;;;;5105738;28;20281;-86
2021/03/29 03:28:56;;;;;;;3.77;2.80;;;5.50;70.30;;;;;;5092890;28;20200;-86
2021/03/29 03:31:23;;;;;;;6.73;3.47;;;5.30;70.00;;;;;;5107714;28;20224;-86
2021/03/29 03:33:51;;;;;;;5.10;3.00;;;5.30;70.10;;;;;;5108391;28;20213;-86
2021/03/29 03:36:19;;;;;;;4.77;2.47;;;5.40;70.10;;;;;;5110744;28;20698;-85
2021/03/29 03:38:48;;;;;;;3.33;2.70;;;5.00;69.70;;;;;;5110593;28;20240;-84
2021/03/29 03:41:23;;;;;;;4.23;2.20;;;4.90;70.20;;;;;;5109678;28;20229;-86
2021/03/29 03:43:52;;;;;;;4.33;2.77;;;4.80;69.50;;;;;;5108505;28;20196;-86
2021/03/29 03:46:22;;;;;;;3.47;2.77;;;4.70;70.70;;;;;;5108207;28;20228;-86
2021/03/29 03:48:48;;;;;;;3.83;2.40;;;4.80;72.70;;;;;;5110424;28;20203;-86
2021/03/29 03:51:15;;;;;;;6.37;2.60;;;4.80;71.80;;;;;;5098618;28;20224;-85
2021/03/29 03:53:42;;;;;;;3.50;2.40;;;4.80;69.50;;;;;;5110433;28;20200;-85
2021/03/29 03:56:10;;;;;;;7.00;2.50;;;4.60;71.00;;;;;;5109496;28;20228;-85
2021/03/29 03:58:37;;;;;;;4.47;2.17;;;4.70;71.60;;;;;;5110548;28;20203;-85
2021/03/29 04:01:07;;;;;;;3.77;2.33;;;4.70;69.50;;;;;;5099493;28;20689;-85
2021/03/29 04:03:35;;;;;;;5.17;2.30;;;4.70;69.40;;;;;;5102069;28;20230;-85
2021/03/29 04:06:02;;;;;;;5.50;2.27;;;4.60;69.30;;;;;;5111688;28;20225;-86
2021/03/29 04:08:29;;;;;;;6.53;2.40;;;4.80;72.90;;;;;;5110789;28;20639;-85
2021/03/29 04:10:56;;;;;;;2.90;2.10;;;4.80;69.60;;;;;;5094391;28;20237;-86
2021/03/29 04:13:27;;;;;;;5.13;2.30;;;4.70;70.20;;;;;;5094066;28;20196;-86
2021/03/29 04:15:54;;;;;;;4.50;2.17;;;4.70;70.30;;;;;;5105966;28;20224;-85
2021/03/29 04:18:20;;;;;;;4.43;2.30;;;4.80;69.50;;;;;;5103796;28;20196;-85
2021/03/29 04:20:48;;;;;;;4.60;2.70;;;4.70;69.40;;;;;;5096558;28;20686;-86
2021/03/29 04:23:15;;;;;;;6.07;2.20;;;4.80;69.50;;;;;;5103241;28;20196;-85
2021/03/29 04:25:41;;;;;;;3.57;2.43;;;4.70;69.40;;;;;;5103408;28;20243;-85
2021/03/29 04:28:07;;;;;;;4.33;2.53;;;4.60;69.30;;;;;;5098174;28;20214;-85
2021/03/29 04:30:34;;;;;;;5.37;2.13;;;4.70;69.40;;;;;;5083295;28;20225;-85
2021/03/29 04:33:01;;;;;;;5.03;2.20;;;4.70;69.40;;;;;;5082389;28;20205;-85
2021/03/29 04:35:27;;;;;;;3.63;2.20;;;4.70;69.50;;;;;;5082425;28;20229;-85
2021/03/29 04:37:55;;;;;;;3.10;2.10;;;4.80;69.50;;;;;;5082741;28;20212;-85
2021/03/29 04:40:24;;;;;;;7.10;2.67;;;4.70;69.40;;;;;;5098932;28;20301;-86
2021/03/29 04:42:50;;;;;;;6.17;2.30;;;4.70;69.50;;;;;;5102468;28;20208;-84
2021/03/29 04:45:17;;;;;;;3.87;2.50;;;4.70;70.00;;;;;;5101507;28;20228;-86
2021/03/29 04:47:44;;;;;;;3.23;2.40;;;4.60;69.30;;;;;;5102383;28;20235;-85
2021/03/29 04:50:12;;;;;;;11.27;2.67;;;4.60;72.10;;;;;;5100468;28;20232;-85
2021/03/29 04:52:39;;;;;;;6.17;2.37;;;4.70;70.90;;;;;;5100129;28;20196;-85
2021/03/29 04:55:08;;;;;;;4.93;2.27;;;4.80;72.10;;;;;;5101626;28;20580;-85
2021/03/29 04:57:34;;;;;;;4.23;2.40;;;4.90;72.00;;;;;;5101844;28;20204;-85
2021/03/29 05:00:01;;;;;;;3.93;2.10;;;4.90;69.60;;;;;;5102855;28;20251;-86
2021/03/29 05:02:28;;;;;;;5.03;2.80;;;4.90;71.80;;;;;;5099567;28;20295;-86
2021/03/29 05:04:54;;;;;;;5.50;3.13;;;4.90;69.70;;;;;;5100449;28;20228;-85
2021/03/29 05:07:20;;;;;;;4.50;2.50;;;4.90;72.40;;;;;;5102472;28;20683;-85
2021/03/29 05:09:47;;;;;;;5.97;2.53;;;4.90;71.20;;;;;;5102894;28;20200;-85
2021/03/29 05:12:16;;;;;;;3.67;3.30;;;5.00;71.20;;;;;;5099579;28;20564;-85
2021/03/29 05:18:06;;;;;;;3.90;2.37;;;4.90;72.50;;;;;;5081198;28;20168;-85
2021/03/29 05:20:33;;;;;;;3.77;2.50;;;5.00;72.00;;;;;;5097627;28;20231;-84
2021/03/29 05:22:59;;;;;;;7.07;2.40;;;5.00;71.60;;;;;;5103055;28;20226;-84
2021/03/29 05:25:25;;;;;;;6.00;2.53;;;5.00;71.20;;;;;;5082267;28;20229;-83
2021/03/29 05:34:37;;;;;;;3.67;3.37;;;5.00;69.70;;;;;;5100421;28;20187;-84
2021/03/29 05:37:04;;;;;;;3.70;2.60;;;5.00;71.80;;;;;;5105892;28;20194;-84
2021/03/29 05:39:30;;;;;;;5.57;2.33;;;5.10;72.00;;;;;;5106512;28;20213;-84
2021/03/29 05:41:56;;;;;;;6.03;3.70;;;5.10;72.10;;;;;;5101376;28;20224;-84
2021/03/29 05:44:23;;;;;;;9.03;2.70;;;5.10;71.00;;;;;;5084977;28;20288;-85
2021/03/29 05:46:49;;;;;;;11.00;4.37;;;5.20;71.90;;;;;;5096491;28;20223;-85
2021/03/29 05:49:16;;;;;;;14.57;5.07;;;5.30;74.30;;;;;;5107192;28;20205;-86
2021/03/29 05:51:44;;;;;;;11.10;4.03;;;5.40;74.20;;;;;;5104025;28;20232;-86
2021/03/29 05:54:10;;;;;;;5.07;2.80;;;5.40;72.30;;;;;;5106792;28;20251;-85
2021/03/29 05:56:39;;;;;;;7.73;4.20;;;5.40;70.10;;;;;;5106815;28;20240;-85
2021/03/29 05:59:11;;;;;;;5.63;2.97;;;5.40;71.50;;;;;;5105365;28;20219;-84
2021/03/29 06:01:45;;;;;;;17.07;3.33;;;5.40;72.30;;;;;;5089638;28;20229;-84
2021/03/29 06:04:14;;;;;;;9.13;4.00;;;5.50;70.30;;;;;;5081844;28;20181;-85
2021/03/29 06:06:41;;;;;;;15.97;3.30;;;5.60;70.40;;;;;;5089956;28;20224;-83
2021/03/29 06:09:09;;;;;;;10.80;3.03;;;5.70;70.40;;;;;;5091339;28;20207;-86
2021/03/29 06:11:38;;;;;;;7.80;3.23;;;5.80;70.60;;;;;;5080836;28;20239;-86
2021/03/29 06:14:09;;;;;;;11.23;3.50;;;5.80;68.60;;;;;;5084859;28;20200;-86
2021/03/29 06:16:54;;;;;;;6.07;2.77;;;6.00;70.00;;;;;;5093095;28;20225;-86
2021/03/29 06:19:39;;;;;;;9.47;3.07;;;5.90;68.60;;;;;;5101642;28;20200;-87
2021/03/29 06:22:07;;;;;;;8.90;3.90;;;5.90;70.90;;;;;;5099300;28;20207;-89
2021/03/29 06:25:01;;;;;;;7.70;2.80;;;6.20;71.00;;;;;;5099883;28;20230;-89
2021/03/29 06:27:28;;;;;;;6.63;2.60;;;6.50;69.60;;;;;;5104556;28;20224;-87
2021/03/29 06:30:28;;;;;;;5.27;2.87;;;6.90;63.00;;;;;;5088243;28;20238;-87
2021/03/29 06:33:07;;;;;;;8.73;2.90;;;8.30;57.10;;;;;;5092812;28;20215;-87
2021/03/29 06:35:37;;;;;;;5.65;2.45;;;9.70;50.70;;;;;;5092611;28;20292;-87
2021/03/29 06:38:12;;;;;;;12.27;3.53;;;11.00;44.60;;;;;;5093151;28;20197;-87
2021/03/29 06:40:42;;;;;;;8.63;2.70;;;12.20;41.80;;;;;;5110145;28;20677;-89
2021/03/29 06:43:23;;;;;;;10.68;2.88;;;13.20;36.60;;;;;;5112102;28;20595;-87
2021/03/29 06:45:51;;;;;;;5.13;2.33;;;14.00;35.00;;;;;;5112326;28;20228;-89
2021/03/29 06:48:27;;;;;;;6.10;2.60;;;14.70;32.10;;;;;;5104234;28;20235;-89
2021/03/29 06:51:11;;;;;;;8.00;2.92;;;15.20;30.50;;;;;;5080469;28;20286;-89
2021/03/29 06:53:41;;;;;;;7.10;2.70;;;15.50;30.90;;;;;;5082395;28;20189;-89
2021/03/29 06:56:22;;;;;;;6.30;2.35;;;15.30;31.70;;;;;;5082118;28;20251;-88
2021/03/29 06:58:48;;;;;;;11.93;2.60;;;15.10;30.80;;;;;;5082209;28;20205;-89
2021/03/29 07:01:16;;;;;;;7.05;2.80;;;14.60;30.80;;;;;;5084103;28;20703;-89
2021/03/29 07:03:43;;;;;;;5.97;2.50;;;14.50;31.30;;;;;;5086754;28;20264;-89
2021/03/29 07:06:10;;;;;;;9.85;2.58;;;14.00;30.60;;;;;;5086098;28;20236;-89
2021/03/29 07:08:41;;;;;;;4.30;2.47;;;14.00;31.60;;;;;;5091573;28;20555;-89
2021/03/29 07:11:08;;;;;;;8.15;2.22;;;14.00;31.40;;;;;;5093075;28;20617;-88
2021/03/29 07:13:38;;;;;;;4.00;2.10;;;13.80;31.20;;;;;;5094349;28;20284;-89
2021/03/29 07:16:06;;;;;;;6.53;2.58;;;13.60;31.60;;;;;;5095222;28;20224;-88
2021/03/29 07:18:33;;;;;;;4.95;2.22;;;13.40;30.60;;;;;;5094190;28;20220;-88
2021/03/29 07:21:02;;;;;;;3.95;2.15;;;12.90;30.50;;;;;;5093857;28;20217;-89
2021/03/29 07:23:29;;;;;;;2.97;1.98;;;12.60;32.70;;;;;;5093825;28;20225;-90
2021/03/29 07:25:59;;;;;;;4.70;2.15;;;13.10;31.60;;;;;;5096641;28;20228;-89
2021/03/29 07:29:07;;;;;;;6.10;2.10;;;13.50;30.90;;;;;;5114744;28;20231;-88
2021/03/29 07:31:42;;;;;;;5.57;2.28;;;14.00;27.80;;;;;;5113782;28;20263;-88
2021/03/29 07:34:09;;;;;;;7.50;2.20;;;14.00;30.90;;;;;;5114959;28;20195;-88
2021/03/29 07:36:44;;;;;;;2.58;2.10;;;13.90;28.80;;;;;;5114411;28;20232;-88
2021/03/29 07:49:42;;;;;;;3.17;1.90;;;13.70;29.80;;;;;;5096011;28;20196;-87
2021/03/29 07:52:39;;;;;;;5.60;1.90;;;13.60;31.30;;;;;;5094798;28;20240;-88
2021/03/29 07:55:18;;;;;;;9.07;2.33;;;13.50;30.50;;;;;;5083311;28;20236;-88
2021/03/29 07:58:08;;;;;;;5.80;1.90;;;13.20;31.30;;;;;;5105002;28;20207;-87
2021/03/29 08:00:48;;;;;;;3.80;1.83;;;13.20;30.30;;;;;;5092669;28;20288;-89
2021/03/29 08:03:46;;;;;;;5.72;1.90;;;13.60;30.00;;;;;;5095175;28;20193;-87
2021/03/29 08:20:09;;;;;;;4.93;1.77;;;14.60;27.50;;;;;;4879734;28;20235;-87
2021/03/29 08:22:35;;;;;;;3.17;2.20;;;14.80;27.70;;;;;;5004726;28;20280;-87
2021/03/29 08:25:02;;;;;;;3.55;2.10;;;15.20;28.00;;;;;;5071959;28;20221;-90
2021/03/29 08:27:30;;;;;;;5.18;2.10;;;15.70;28.40;;;;;;5079685;28;20229;-88
2021/03/29 08:30:11;;;;;;;6.40;2.42;;;16.10;26.70;;;;;;5080888;28;20260;-88
2021/03/29 08:32:37;;;;;;;4.22;2.10;;;16.30;29.00;;;;;;5084050;28;20242;-88
2021/03/29 08:35:06;;;;;;;2.83;2.00;;;16.30;29.00;;;;;;5087956;28;20289;-88
2021/03/29 08:37:38;;;;;;;6.30;2.55;;;16.50;28.80;;;;;;5092599;28;20226;-88
2021/03/29 08:40:11;;;;;;;5.47;2.30;;;16.50;29.10;;;;;;5108386;28;20223;-88
2021/03/29 08:42:40;;;;;;;2.50;2.13;;;16.30;27.40;;;;;;5110179;28;20208;-88
2021/03/29 08:45:08;;;;;;;5.32;2.20;;;16.60;27.30;;;;;;5085986;28;20590;-88
2021/03/29 08:47:38;;;;;;;4.40;2.10;;;17.30;26.00;;;;;;5088282;28;20220;-87
2021/03/29 08:50:08;;;;;;;6.55;2.30;;;17.40;26.00;;;;;;5090018;28;20225;-88
2021/03/29 08:52:51;;;;;;;4.35;2.42;;;17.30;26.20;;;;;;5088514;28;20200;-88
2021/03/29 08:55:20;;;;;;;2.65;2.05;;;17.50;24.50;;;;;;5091536;28;20281;-87
2021/03/29 08:57:47;;;;;;;4.72;2.22;;;17.70;25.00;;;;;;5092408;28;20205;-85
2021/03/29 09:00:16;;;;;;;4.03;2.20;;;17.50;24.90;;;;;;5093332;28;20229;-85
2021/03/29 09:02:43;;;;;;;2.65;1.90;;;18.00;27.40;;;;;;5093995;28;20311;-85
2021/03/29 09:05:10;;;;;;;3.38;2.00;;;18.50;24.10;;;;;;5093099;28;20236;-85
2021/03/29 09:07:41;;;;;;;4.97;2.70;;;19.10;22.10;;;;;;5091203;28;20280;-86
2021/03/29 09:10:18;;;;;;;8.77;2.30;;;20.40;20.60;;;;;;5087695;28;20344;-86
2021/03/29 09:12:46;;;;;;;5.05;2.40;;;20.50;19.90;;;;;;5091370;28;20553;-86
2021/03/29 09:15:14;;;;;;;5.25;2.95;;;20.60;19.50;;;;;;5099642;28;20253;-84
2021/03/29 09:17:40;;;;;;;6.40;2.50;;;21.50;19.70;;;;;;5108951;28;20260;-82
2021/03/29 09:20:18;;;;;;;6.30;2.45;;;21.90;18.40;;;;;;5104329;28;20225;-81
2021/03/29 09:22:46;;;;;;;19.13;3.40;;;22.10;18.20;;;;;;5105790;28;20222;-84
2021/03/29 09:25:13;;;;;;;5.70;2.40;;;22.10;18.90;;;;;;5108048;28;20247;-84
2021/03/29 09:27:42;;;;;;;3.40;2.13;;;23.30;17.40;;;;;;5095612;28;20216;-85
2021/03/29 09:30:11;;;;;;;7.00;2.83;;;23.90;15.90;;;;;;5096069;28;20220;-84
2021/03/29 09:32:39;;;;;;;7.30;2.53;;;24.90;17.00;;;;;;5094525;28;20200;-84
2021/03/29 09:35:07;;;;;;;9.23;3.15;;;25.60;14.50;;;;;;5093709;28;20306;-84
2021/03/29 09:37:34;;;;;;;4.80;2.83;;;25.90;14.60;;;;;;5095973;28;20286;-84
2021/03/29 09:40:05;;;;;;;9.02;3.03;;;26.20;14.70;;;;;;5094023;28;20234;-84
2021/03/29 09:42:40;;;;;;;5.90;3.00;;;26.10;14.70;;;;;;5093280;28;20673;-85
2021/03/29 09:45:09;;;;;;;9.57;3.22;;;25.80;14.20;;;;;;5097339;28;20776;-84
2021/03/29 09:47:36;;;;;;;5.45;2.90;;;26.20;14.70;;;;;;5078827;28;20221;-85
2021/03/29 09:50:05;;;;;;;3.83;2.60;;;26.50;14.90;;;;;;5082409;28;20541;-84
2021/03/29 09:52:37;;;;;;;4.70;2.90;;;27.50;12.70;;;;;;5095241;28;20665;-84
2021/03/29 09:55:04;;;;;;;2.80;2.50;;;27.20;13.90;;;;;;5095488;28;20226;-85
2021/03/29 09:57:38;;;;;;;4.60;2.95;;;27.40;11.70;;;;;;5087091;28;20201;-85
2021/03/29 10:00:20;;;;;;;6.30;3.00;;;27.80;13.10;;;;;;5074662;28;20226;-85
2021/03/29 10:02:48;;;;;;;7.20;3.00;;;28.90;11.50;;;;;;5076441;28;20196;-84
2021/03/29 10:05:17;;;;;;;4.28;3.20;;;28.00;12.10;;;;;;5057780;28;20228;-85
2021/03/29 10:07:54;;;;;;;6.63;2.92;;;27.30;13.30;;;;;;5077741;28;20259;-84
2021/03/29 10:10:25;;;;;;;6.93;2.78;;;27.30;12.30;;;;;;5075143;28;20596;-84
2021/03/29 10:13:04;;;;;;;5.47;2.70;;;26.00;14.60;;;;;;5075268;28;20193;-84
2021/03/29 10:15:33;;;;;;;6.72;2.90;;;25.20;14.20;;;;;;5077048;28;20264;-85
2021/03/29 10:18:08;;;;;;;4.80;2.60;;;24.30;14.80;;;;;;5095253;28;20287;-84
2021/03/29 10:20:36;;;;;;;4.75;2.63;;;23.40;16.00;;;;;;5079635;28;20220;-84
2021/03/29 10:23:20;;;;;;;5.38;2.75;;;22.80;16.30;;;;;;5090390;28;20202;-84
2021/03/29 10:26:13;;;;;;;4.47;2.45;;;22.80;17.60;;;;;;5100502;28;20586;-83
2021/03/29 10:28:40;;;;;;;4.57;2.60;;;23.60;15.50;;;;;;5096959;28;20231;-84
2021/03/29 10:31:07;;;;;;;4.70;2.55;;;23.60;15.50;;;;;;5094844;28;20224;-84
2021/03/29 10:33:33;;;;;;;6.05;2.85;;;24.20;15.70;;;;;;5099131;28;20202;-85
2021/03/29 10:36:00;;;;;;;5.30;2.92;;;24.60;14.00;;;;;;5099691;28;20236;-84
2021/03/29 10:38:26;;;;;;;8.75;2.65;;;24.20;13.70;;;;;;5098841;28;20218;-84
2021/03/29 10:40:52;;;;;;;4.32;2.80;;;24.30;14.70;;;;;;5098636;28;20662;-84
2021/03/29 10:43:19;;;;;;;6.32;2.70;;;24.90;14.20;;;;;;5089737;28;20286;-84
2021/03/29 10:45:45;;;;;;;6.68;2.67;;;25.00;14.20;;;;;;5096723;28;20228;-84
2021/03/29 10:48:13;;;;;;;3.58;2.47;;;25.60;14.50;;;;;;5100565;28;20224;-84
2021/03/29 10:50:39;;;;;;;6.15;2.67;;;25.40;14.40;;;;;;5078020;28;20254;-84
2021/03/29 10:53:06;;;;;;;7.05;2.58;;;25.00;14.20;;;;;;5088217;28;20196;-84
2021/03/29 10:55:32;;;;;;;2.35;2.10;;;25.60;13.40;;;;;;5101222;28;20246;-84
2021/03/29 10:57:59;;;;;;;2.95;2.45;;;25.30;14.30;;;;;;5097442;28;20207;-84
2021/03/29 11:00:25;;;;;;;5.32;2.75;;;25.30;14.30;;;;;;5099068;28;20231;-84
2021/03/29 11:02:53;;;;;;;6.15;2.80;;;25.10;14.20;;;;;;5093716;28;20236;-85
2021/03/29 11:05:21;;;;;;;4.85;2.47;;;25.70;14.50;;;;;;5096380;28;20232;-84
2021/03/29 11:07:47;;;;;;;5.32;2.75;;;25.00;14.20;;;;;;5088879;28;20224;-84
2021/03/29 11:10:14;;;;;;;4.50;2.90;;;24.10;13.60;;;;;;5077994;28;20581;-84
2021/03/29 11:12:41;;;;;;;5.45;2.60;;;23.90;16.00;;;;;;5096604;28;20253;-83
2021/03/29 11:15:08;;;;;;;7.68;2.63;;;23.30;16.60;;;;;;5113725;28;20224;-83
2021/03/29 11:17:37;;;;;;;4.95;2.65;;;22.20;17.00;;;;;;5101930;28;20283;-86
2021/03/29 11:20:05;;;;;;;3.20;2.17;;;21.50;18.50;;;;;;5106454;28;20228;-86
2021/03/29 11:22:33;;;;;;;11.55;2.72;;;21.20;18.30;;;;;;5112790;28;20217;-86
2021/03/29 11:24:59;;;;;;;12.70;2.42;;;20.80;19.40;;;;;;5111463;28;20307;-85
2021/03/29 11:27:26;;;;;;;5.85;2.20;;;20.60;19.50;;;;;;5111905;28;20227;-88
2021/03/29 11:29:56;;;;;;;6.65;3.92;;;20.40;18.00;;;;;;5097926;28;20239;-88
2021/03/29 11:32:25;;;;;;;9.10;2.25;;;20.30;20.50;;;;;;5111691;28;20223;-88
2021/03/29 11:34:51;;;;;;;7.20;2.42;;;20.10;20.60;;;;;;5109882;28;20284;-88
2021/03/29 11:40:39;;;;;;;4.63;2.20;;;20.20;21.20;;;;;;5082573;28;20250;-87
2021/03/29 11:43:06;;;;;;;4.10;2.17;;;19.90;21.70;;;;;;5094769;28;20197;-87
2021/03/29 11:45:32;;;;;;;3.25;2.22;;;20.00;20.30;;;;;;5095310;28;20229;-87
2021/03/29 11:47:59;;;;;;;6.05;2.15;;;20.10;19.80;;;;;;5095020;28;20221;-87
2021/03/29 11:50:26;;;;;;;5.95;2.35;;;19.90;19.20;;;;;;5105074;28;20228;-87
2021/03/29 11:52:52;;;;;;;6.10;2.47;;;19.90;18.80;;;;;;5115839;28;20197;-87
2021/03/29 11:55:19;;;;;;;4.28;2.80;;;19.90;20.00;;;;;;5109153;28;20740;-88
2021/03/29 11:57:46;;;;;;;5.10;2.35;;;19.90;17.30;;;;;;5115017;28;20227;-87
2021/03/29 12:00:20;;;;;;;15.35;2.83;;;19.90;20.20;;;;;;5113511;28;20228;-87
2021/03/29 12:02:54;;;;;;;11.43;2.50;;;19.70;17.90;;;;;;5114362;28;20203;-87
2021/03/29 12:05:24;;;;;;;5.18;1.98;;;19.80;19.30;;;;;;5100205;28;20252;-87
2021/03/29 12:08:01;;;;;;;3.97;2.22;;;19.80;18.70;;;;;;5111998;28;20251;-87
2021/03/29 12:13:13;;;;;;;7.28;2.53;;;19.70;17.60;;;;;;5101399;28;20184;-89
2021/03/29 12:15:41;;;;;;;4.38;2.13;;;19.60;20.00;;;;;;5098156;28;20307;-89
2021/03/29 12:18:11;;;;;;;12.30;2.53;;;19.60;16.60;;;;;;5097559;28;20192;-89
2021/03/29 12:20:37;;;;;;;4.38;2.38;;;19.60;18.70;;;;;;5105879;28;20231;-87
2021/03/29 12:23:04;;;;;;;4.45;2.40;;;19.60;18.20;;;;;;5113464;28;20256;-87
2021/03/29 12:25:32;;;;;;;6.40;2.55;;;19.70;19.10;;;;;;5110093;28;20288;-87
2021/03/29 12:28:00;;;;;;;7.93;2.30;;;19.60;18.60;;;;;;5114354;28;20251;-87
2021/03/29 12:30:27;;;;;;;5.85;2.13;;;19.80;18.70;;;;;;5113320;28;20220;-87
2021/03/29 12:32:54;;;;;;;6.35;2.33;;;19.70;18.80;;;;;;5114785;28;20197;-87
2021/03/29 12:35:22;;;;;;;6.47;2.30;;;19.60;17.90;;;;;;5112807;28;20283;-87
2021/03/29 12:37:51;;;;;;;4.05;2.08;;;19.60;18.80;;;;;;5115432;28;20204;-87
2021/03/29 12:40:21;;;;;;;8.45;2.67;;;19.70;18.80;;;;;;5113763;28;20228;-87
2021/03/29 12:42:51;;;;;;;4.70;2.45;;;19.70;19.40;;;;;;5112251;28;20204;-87
2021/03/29 12:45:28;;;;;;;4.30;2.28;;;19.50;18.90;;;;;;5113722;28;20242;-87
2021/03/29 12:47:59;;;;;;;3.42;2.45;;;19.50;18.00;;;;;;5110912;28;20219;-87
2021/03/29 12:50:26;;;;;;;5.60;2.53;;;19.50;17.40;;;;;;5099513;28;20232;-87
2021/03/29 12:52:53;;;;;;;3.88;2.38;;;19.40;17.80;;;;;;5090193;28;20206;-87
2021/03/29 12:55:21;;;;;;;9.13;2.38;;;19.50;18.10;;;;;;5092266;28;20231;-87
2021/03/29 12:57:48;;;;;;;4.90;2.10;;;19.70;18.20;;;;;;5090798;28;20197;-87
2021/03/29 13:00:18;;;;;;;3.80;2.30;;;19.60;16.20;;;;;;5076886;28;20782;-87
2021/03/29 13:02:46;;;;;;;9.07;3.13;;;19.60;18.70;;;;;;5091372;28;20213;-86
2021/03/29 13:05:17;;;;;;;6.15;3.10;;;19.50;17.20;;;;;;5090788;28;20593;-86
2021/03/29 13:07:47;;;;;;;7.82;2.30;;;19.50;17.40;;;;;;5105120;28;20227;-87
2021/03/29 13:11:01;;;;;;;2.67;2.03;;;19.50;18.30;;;;;;5111704;28;20311;-86
2021/03/29 13:13:03;;;;;;;3.42;2.20;;;19.40;17.10;;;;;;5091402;28;20204;-87
2021/03/29 13:15:29;;;;;;;6.82;1.90;;;19.30;16.60;;;;;;5090391;28;20679;-86
2021/03/29 13:17:56;;;;;;;5.20;2.60;;;19.30;17.30;;;;;;5092751;28;20207;-86
2021/03/29 13:20:24;;;;;;;5.28;2.45;;;19.40;17.20;;;;;;5092737;28;20224;-87
2021/03/29 13:22:52;;;;;;;8.05;2.00;;;19.60;18.70;;;;;;5112653;28;20184;-87
2021/03/29 13:25:22;;;;;;;6.40;2.00;;;19.50;16.60;;;;;;5113297;28;20239;-87
2021/03/29 13:27:48;;;;;;;6.88;2.20;;;19.40;18.40;;;;;;5105638;28;20223;-87
2021/03/29 13:30:17;;;;;;;7.25;2.10;;;19.40;16.90;;;;;;5093547;28;20248;-87
2021/03/29 13:32:44;;;;;;;4.97;2.05;;;19.50;16.90;;;;;;5091773;28;20221;-86
2021/03/29 13:35:11;;;;;;;8.18;1.92;;;19.40;16.40;;;;;;5093132;28;20225;-87
2021/03/29 13:37:41;;;;;;;3.15;1.95;;;19.40;17.50;;;;;;5092946;28;20204;-87
2021/03/29 13:40:11;;;;;;;4.35;2.00;;;19.30;17.60;;;;;;5092893;28;20224;-87
2021/03/29 13:42:38;;;;;;;7.43;2.20;;;19.40;17.40;;;;;;5092022;28;20209;-87